Have a Safe July 4th! 

Flight Track Log - Related Links

Times and Time Zones

All times are in EST time to prevent confusion due to time zone crossing. See the UAL33 flight status page for this flight to view local times or setup timezone preferences in your user account.

Time Position Orientation Groundspeed Altitude Reporting Facility
EST Latitude Longitude Course Direction KTS MPH feet Rate Location/Type
Thu 04:49:00 AM 36.2356 141.2554 56° Northeast  Level FlightAware Approximate
Thu 04:50:00 AM 36.3135 141.4012 56° Northeast  Level FlightAware Approximate
Thu 04:51:00 AM 36.3912 141.5474 57° Northeast  Level FlightAware Approximate
Thu 04:52:00 AM 36.4687 141.6938 57° Northeast  Level FlightAware Approximate
Thu 04:53:00 AM 36.5460 141.8405 57° Northeast  Level FlightAware Approximate
Thu 04:54:00 AM 36.6232 141.9876 57° Northeast  Level FlightAware Approximate
Thu 04:55:00 AM 36.7008 142.1362 57° Northeast  Level FlightAware Approximate
Thu 04:56:00 AM 36.7783 142.2851 57° Northeast  Level FlightAware Approximate
Thu 04:57:00 AM 36.8556 142.4344 57° Northeast  Level FlightAware Approximate
Thu 04:58:00 AM 36.9327 142.5839 57° Northeast  Level FlightAware Approximate
Thu 04:59:00 AM 37.0041 142.7228 57° Northeast  Level FlightAware Approximate
Thu 05:00:00 AM 37.0809 142.8729 57° Northeast  Level FlightAware Approximate
Thu 05:01:00 AM 37.1575 143.0232 57° Northeast  Level FlightAware Approximate
Thu 05:02:00 AM 37.2340 143.1739 57° Northeast  Level FlightAware Approximate
Thu 05:03:00 AM 37.3102 143.3248 58° Northeast  Level FlightAware Approximate
Thu 05:04:00 AM 37.3863 143.4761 58° Northeast  Level FlightAware Approximate
Thu 05:05:00 AM 37.4622 143.6277 58° Northeast  Level FlightAware Approximate
Thu 05:06:00 AM 37.5379 143.7796 58° Northeast  Level FlightAware Approximate
Thu 05:07:00 AM 37.6132 143.9315 58° Northeast  Level FlightAware Approximate
Thu 05:08:00 AM 37.6884 144.0837 58° Northeast  Level FlightAware Approximate
Thu 05:09:00 AM 37.7633 144.2363 58° Northeast  Level FlightAware Approximate
Thu 05:10:00 AM 37.8381 144.3891 58° Northeast  Level FlightAware Approximate
Thu 05:11:00 AM 37.9127 144.5422 58° Northeast  Level FlightAware Approximate
Thu 05:12:00 AM 37.9870 144.6957 58° Northeast  Level FlightAware Approximate
Thu 05:13:00 AM 38.0612 144.8495 58° Northeast  Level FlightAware Approximate
Thu 05:14:00 AM 38.1352 145.0036 59° Northeast  Level FlightAware Approximate
Thu 05:15:00 AM 38.2089 145.1580 59° Northeast  Level FlightAware Approximate
Thu 05:16:00 AM 38.2825 145.3127 59° Northeast  Level FlightAware Approximate
Thu 05:17:00 AM 38.3572 145.4705 59° Northeast  Level FlightAware Approximate
Thu 05:18:00 AM 38.4316 145.6287 59° Northeast  Level FlightAware Approximate
Thu 05:19:00 AM 38.5059 145.7872 59° Northeast  Level FlightAware Approximate
Thu 05:20:00 AM 38.5800 145.9461 59° Northeast  Level FlightAware Approximate
Thu 05:21:00 AM 38.6538 146.1052 59° Northeast  Level FlightAware Approximate
Thu 05:22:00 AM 38.7274 146.2647 59° Northeast  Level FlightAware Approximate
Thu 05:23:00 AM 38.7995 146.4217 59° Northeast  Level FlightAware Approximate
Thu 05:24:00 AM 38.8714 146.5789 60° Northeast  Level FlightAware Approximate
Thu 05:25:00 AM 38.9431 146.7365 60° Northeast  Level FlightAware Approximate
Thu 05:26:00 AM 39.0145 146.8944 60° Northeast  Level FlightAware Approximate
Thu 05:27:00 AM 39.0858 147.0527 60° Northeast  Level FlightAware Approximate
Thu 05:28:00 AM 39.1568 147.2112 60° Northeast  Level FlightAware Approximate
Thu 05:29:00 AM 39.2276 147.3701 60° Northeast  Level FlightAware Approximate
Thu 05:30:00 AM 39.2982 147.5293 60° Northeast  Level FlightAware Approximate
Thu 05:31:00 AM 39.3686 147.6888 60° Northeast  Level FlightAware Approximate
Thu 05:32:00 AM 39.4388 147.8486 60° Northeast  Level FlightAware Approximate
Thu 05:33:00 AM 39.5087 148.0088 60° Northeast  Level FlightAware Approximate
Thu 05:34:00 AM 39.5784 148.1692 61° Northeast  Level FlightAware Approximate
Thu 05:35:00 AM 39.6479 148.3300 61° Northeast  Level FlightAware Approximate
Thu 05:36:00 AM 39.7172 148.4911 61° Northeast  Level FlightAware Approximate
Thu 05:37:00 AM 39.7863 148.6526 61° Northeast  Level FlightAware Approximate
Thu 05:38:00 AM 39.8551 148.8143 61° Northeast  Level FlightAware Approximate
Thu 05:39:00 AM 39.9237 148.9764 61° Northeast  Level FlightAware Approximate
Thu 05:40:00 AM 39.9921 149.1389 61° Northeast  Level FlightAware Approximate
Thu 05:41:00 AM 40.0602 149.3016 61° Northeast  Level FlightAware Approximate
Thu 05:42:00 AM 40.1282 149.4646 61° Northeast  Level FlightAware Approximate
Thu 05:43:00 AM 40.1959 149.6280 61° Northeast  Level FlightAware Approximate
Thu 05:44:00 AM 40.2633 149.7918 62° Northeast  Level FlightAware Approximate
Thu 05:45:00 AM 40.3306 149.9558 62° Northeast  Level FlightAware Approximate
Thu 05:46:00 AM 40.3976 150.1202 62° Northeast  Level FlightAware Approximate
Thu 05:47:00 AM 40.4643 150.2849 62° Northeast  Level FlightAware Approximate
Thu 05:48:00 AM 40.5310 150.4502 62° Northeast  Level FlightAware Approximate
Thu 05:49:00 AM 40.5974 150.6158 62° Northeast  Level FlightAware Approximate
Thu 05:50:00 AM 40.6636 150.7818 62° Northeast  Level FlightAware Approximate
Thu 05:51:00 AM 40.7295 150.9481 62° Northeast  Level FlightAware Approximate
Thu 05:52:00 AM 40.7953 151.1148 62° Northeast  Level FlightAware Approximate
Thu 05:53:00 AM 40.8607 151.2817 63° Northeast  Level FlightAware Approximate
Thu 05:54:00 AM 40.9260 151.4490 63° Northeast  Level FlightAware Approximate
Thu 05:55:00 AM 40.9909 151.6166 63° Northeast  Level FlightAware Approximate
Thu 05:56:00 AM 41.0557 151.7846 63° Northeast  Level FlightAware Approximate
Thu 05:57:00 AM 41.1202 151.9529 63° Northeast  Level FlightAware Approximate
Thu 05:58:00 AM 41.1844 152.1215 63° Northeast  Level FlightAware Approximate
Thu 05:59:00 AM 41.2484 152.2905 63° Northeast  Level FlightAware Approximate
Thu 06:00:00 AM 41.3122 152.4597 63° Northeast  Level FlightAware Approximate
Thu 06:01:00 AM 41.3757 152.6293 63° Northeast  Level FlightAware Approximate
Thu 06:02:00 AM 41.4389 152.7993 64° Northeast  Level FlightAware Approximate
Thu 06:03:00 AM 41.5020 152.9695 64° Northeast  Level FlightAware Approximate
Thu 06:04:00 AM 41.5647 153.1402 64° Northeast  Level FlightAware Approximate
Thu 06:05:00 AM 41.6272 153.3111 64° Northeast  Level FlightAware Approximate
Thu 06:06:00 AM 41.6895 153.4823 64° Northeast  Level FlightAware Approximate
Thu 06:07:00 AM 41.7515 153.6539 64° Northeast  Level FlightAware Approximate
Thu 06:08:00 AM 41.8132 153.8259 64° Northeast  Level FlightAware Approximate
Thu 06:09:00 AM 41.8747 153.9981 64° Northeast  Level FlightAware Approximate
Thu 06:10:00 AM 41.9359 154.1707 64° Northeast  Level FlightAware Approximate
Thu 06:11:00 AM 41.9969 154.3436 65° Northeast  Level FlightAware Approximate
Thu 06:12:00 AM 42.0573 154.5171 65° Northeast  Level FlightAware Approximate
Thu 06:13:00 AM 42.1173 154.6909 65° Northeast  Level FlightAware Approximate
Thu 06:14:00 AM 42.1770 154.8651 65° Northeast  Level FlightAware Approximate
Thu 06:15:00 AM 42.2365 155.0396 65° Northeast  Level FlightAware Approximate
Thu 06:16:00 AM 42.2957 155.2145 65° Northeast  Level FlightAware Approximate
Thu 06:17:00 AM 42.3546 155.3897 65° Northeast  Level FlightAware Approximate
Thu 06:18:00 AM 42.4133 155.5652 66° East  Level FlightAware Approximate
Thu 06:19:00 AM 42.4717 155.7410 66° East  Level FlightAware Approximate
Thu 06:20:00 AM 42.5298 155.9172 66° East  Level FlightAware Approximate
Thu 06:21:00 AM 42.5877 156.0936 66° East  Level FlightAware Approximate
Thu 06:22:00 AM 42.6452 156.2705 66° East  Level FlightAware Approximate
Thu 06:23:00 AM 42.7026 156.4476 66° East  Level FlightAware Approximate
Thu 06:24:00 AM 42.7596 156.6251 66° East  Level FlightAware Approximate
Thu 06:25:00 AM 42.8164 156.8029 66° East  Level FlightAware Approximate
Thu 06:26:00 AM 42.8729 156.9810 67° East  Level FlightAware Approximate
Thu 06:27:00 AM 42.9291 157.1594 67° East  Level FlightAware Approximate
Thu 06:28:00 AM 42.9850 157.3382 67° East  Level FlightAware Approximate
Thu 06:29:00 AM 43.0407 157.5173 67° East  Level FlightAware Approximate
Thu 06:30:00 AM 43.0961 157.6967 67° East  Level FlightAware Approximate
Thu 06:31:00 AM 43.1512 157.8765 67° East  Level FlightAware Approximate
Thu 06:32:00 AM 43.2060 158.0565 67° East  Level FlightAware Approximate
Thu 06:33:00 AM 43.2605 158.2369 67° East  Level FlightAware Approximate
Thu 06:34:00 AM 43.3148 158.4176 68° East  Level FlightAware Approximate
Thu 06:35:00 AM 43.3687 158.5987 68° East  Level FlightAware Approximate
Thu 06:36:00 AM 43.4224 158.7800 68° East  Level FlightAware Approximate
Thu 06:37:00 AM 43.4758 158.9617 68° East  Level FlightAware Approximate
Thu 06:38:00 AM 43.5289 159.1437 68° East  Level FlightAware Approximate
Thu 06:39:00 AM 43.5817 159.3260 68° East  Level FlightAware Approximate
Thu 06:40:00 AM 43.6342 159.5087 68° East  Level FlightAware Approximate
Thu 06:41:00 AM 43.6865 159.6916 68° East  Level FlightAware Approximate
Thu 06:42:00 AM 43.7384 159.8749 69° East  Level FlightAware Approximate
Thu 06:43:00 AM 43.7901 160.0585 69° East  Level FlightAware Approximate
Thu 06:44:00 AM 43.8414 160.2424 69° East  Level FlightAware Approximate
Thu 06:45:00 AM 43.8927 160.4265 69° East  Level FlightAware Approximate
Thu 06:46:00 AM 43.9456 160.6173 69° East  Level FlightAware Approximate
Thu 06:47:00 AM 43.9966 160.8023 69° East  Level FlightAware Approximate
Thu 06:48:00 AM 44.0472 160.9876 69° East  Level FlightAware Approximate
Thu 06:49:00 AM 44.0976 161.1732 69° East  Level FlightAware Approximate
Thu 06:50:00 AM 44.1477 161.3592 69° East  Level FlightAware Approximate
Thu 06:51:00 AM 44.1974 161.5454 70° East  Level FlightAware Approximate
Thu 06:52:00 AM 44.2468 161.7320 70° East  Level FlightAware Approximate
Thu 06:53:00 AM 44.2960 161.9189 70° East  Level FlightAware Approximate
Thu 06:54:00 AM 44.3448 162.1060 70° East  Level FlightAware Approximate
Thu 06:55:00 AM 44.3934 162.2935 70° East  Level FlightAware Approximate
Thu 06:56:00 AM 44.4416 162.4814 70° East  Level FlightAware Approximate
Thu 06:57:00 AM 44.4895 162.6695 70° East  Level FlightAware Approximate
Thu 06:58:00 AM 44.5371 162.8579 70° East  Level FlightAware Approximate
Thu 06:59:00 AM 44.5844 163.0466 71° East  Level FlightAware Approximate
Thu 07:00:00 AM 44.6314 163.2357 71° East  Level FlightAware Approximate
Thu 07:01:00 AM 44.6781 163.4250 71° East  Level FlightAware Approximate
Thu 07:02:00 AM 44.7244 163.6147 71° East  Level FlightAware Approximate
Thu 07:03:00 AM 44.7705 163.8046 71° East  Level FlightAware Approximate
Thu 07:04:00 AM 44.8162 163.9948 71° East  Level FlightAware Approximate
Thu 07:05:00 AM 44.8616 164.1854 71° East  Level FlightAware Approximate
Thu 07:06:00 AM 44.9067 164.3763 71° East  Level FlightAware Approximate
Thu 07:07:00 AM 44.9515 164.5674 72° East  Level FlightAware Approximate
Thu 07:08:00 AM 44.9960 164.7589 72° East  Level FlightAware Approximate
Thu 07:09:00 AM 45.0401 164.9506 72° East  Level FlightAware Approximate
Thu 07:09:11 AM 44.4667 164.4167 67° East 528 608 39,000  Level Oakland Oceanic (ODAPS)
Thu 07:22:56 AM 45.2333 167.0667 68° East 524 603 39,000  Level Oakland Oceanic (ODAPS)
Thu 07:24:01 AM 45.2333 167.0667 68° East 524 603 39,000  Level Oakland Oceanic (ODAPS)
Thu 07:37:43 AM 45.9333 169.7500 69° East 504 580 39,000  Level Oakland Oceanic (ODAPS)
Thu 07:39:05 AM 46.0500 170.2000 70° East 513 590 39,000  Level Oakland Oceanic (ODAPS)
Thu 07:50:32 AM 46.5667 172.4000 72° East 507 583 39,000  Level Oakland Oceanic (ODAPS)
Thu 08:04:24 AM 47.1500 175.0833 74° East 492 566 39,000  Level Oakland Oceanic (ODAPS)
Thu 08:18:18 AM 47.6500 177.7833 76° East 500 575 39,000  Level Oakland Oceanic (ODAPS)
Thu 08:29:09 AM 48.0000 180.0000 95° East 536 617 39,000  Level Oakland Oceanic (ODAPS)
Thu 08:32:09 AM 47.9667 -179.3333 95° East 538 619 39,000  Level Oakland Oceanic (ODAPS)
Thu 08:46:02 AM 47.7333 -176.3167 97° East 536 617 39,000  Level Oakland Oceanic (ODAPS)
Thu 08:59:53 AM 47.4333 -173.3167 100° East 526 605 39,000  Level Oakland Oceanic (ODAPS)
Thu 09:13:44 AM 47.0500 -170.3833 101° East 533 613 39,000  Level Oakland Oceanic (ODAPS)
Thu 09:15:36 AM 47.0000 -170.0000 102° East 534 615 39,000  Level Oakland Oceanic (ODAPS)
Thu 09:27:37 AM 46.5833 -167.4333 104° East 538 619 39,000  Level Oakland Oceanic (ODAPS)
Thu 09:41:29 AM 46.0333 -164.5500 106° East 533 613 39,000  Level Oakland Oceanic (ODAPS)
Thu 09:55:21 AM 45.4333 -161.7667 109° East 534 615 39,000  Level Oakland Oceanic (ODAPS)
Thu 10:04:15 AM 45.0000 -160.0000 102° East 537 618 39,000  Level Oakland Oceanic (ODAPS)
Thu 10:09:13 AM 44.8500 -158.9833 103° East 540 621 39,000  Level Oakland Oceanic (ODAPS)
Thu 10:23:05 AM 44.3667 -156.2000 105° East 540 621 39,000  Level Oakland Oceanic (ODAPS)
Thu 10:36:57 AM 43.8000 -153.4667 106° East 536 617 39,000  Level Oakland Oceanic (ODAPS)
Thu 10:50:49 AM 43.1833 -150.7500 108° East 540 621 39,000  Level Oakland Oceanic (ODAPS)
Thu 10:54:41 AM 43.0000 -150.0000 94° East 568 654 39,000  Level Oakland Oceanic (ODAPS)
Thu 11:04:40 AM 42.8667 -147.8833 96° East 579 666 39,000  Level Oakland Oceanic (ODAPS)
Thu 11:18:33 AM 42.6167 -144.9833 98° East 573 659 39,000  Level Oakland Oceanic (ODAPS)
Thu 11:32:25 AM 42.2833 -142.0500 100° East 588 677 39,000  Level Oakland Oceanic (ODAPS)
Thu 11:42:05 AM 42.0000 -140.0000 102° East 589 678 39,000  Level Oakland Oceanic (ODAPS)
Thu 11:49:24 AM 41.8667 -139.1000 102° East 593 682 39,000  Level Oakland Oceanic (ODAPS)
Thu 11:50:13 AM 41.7167 -138.2667 103° East 601 692 39,000 186 Level Oakland Oceanic (ODAPS)
Thu 12:00:09 PM 41.3333 -136.1167 104° East 571 657 41,000 84 Climbing Oakland Oceanic (ODAPS)
Thu 12:14:01 PM 40.7667 -133.2833 106° East 593 682 41,000  Level Oakland Oceanic (ODAPS)
Thu 12:27:53 PM 40.1167 -130.4500 109° East 580 667 41,000  Level Oakland Oceanic (ODAPS)
Thu 12:30:13 PM 40.0000 -130.0000 122° Southeast 575 662 41,000  Level Oakland Oceanic (ODAPS)
Thu 12:41:40 PM 39.0000 -128.0167 124° Southeast 558 642 41,000 -13 Level Oakland Oceanic (ODAPS)
Thu 12:45:11 PM 38.7083 -127.4564 111° Southeast 545 627 40,800  Descending Oakland Center
Thu 12:46:00 PM 38.5590 -127.1729 124° Southeast 575 662 41,000 -2,852 Climbing FlightAware Transoceanic
Thu 12:46:12 PM 38.6272 -127.2978 123° Southeast 538 619 37,900  Descending Oakland Center
Thu 12:47:00 PM 38.4667 -127.0000 111° Southeast 575 662 41,000 -871 Climbing FlightAware Transoceanic
Thu 12:47:14 PM 38.5372 -127.1286 124° Southeast 573 659 37,000  Descending Oakland Center
Thu 12:48:00 PM 38.4667 -127.0000 111° Southeast 558 642 41,000 -98 Climbing FlightAware Transoceanic
Thu 12:48:15 PM 38.4547 -126.9531 121° Southeast 581 669 36,900  Descending Oakland Center
Thu 12:49:00 PM 38.4094 -126.8114 111° Southeast 558 642 41,000 97 Climbing FlightAware Transoceanic
Thu 12:49:17 PM 38.3922 -126.7614 113° Southeast 587 676 37,000  Descending Oakland Center
Thu 12:50:00 PM 38.3518 -126.6232 111° Southeast 558 642 41,000  Climbing FlightAware Transoceanic
Thu 12:50:18 PM 38.3397 -126.5631 109° East 590 679 37,000 -3,114 Descending Oakland Center
Thu 12:51:19 PM 38.2861 -126.3678 109° East 589 678 36,900 -49 Descending Oakland Center
Thu 12:52:21 PM 38.2256 -126.1500 109° East 590 679 36,900 49 Level Oakland Center
Thu 12:53:22 PM 38.1719 -125.9553 109° East 586 674 37,000 49 Climbing Oakland Center
Thu 12:54:24 PM 38.1186 -125.7628 109° East 583 671 37,000 -49 Level Oakland Center
Thu 12:55:25 PM 38.0636 -125.5706 110° East 582 670 36,900  Descending Oakland Center
Thu 12:56:27 PM 38.0097 -125.3794 110° East 578 665 37,000  Climbing Oakland Center
Thu 12:57:28 PM 37.9447 -125.1522 110° East 576 663 36,900 -49 Descending Oakland Center
Thu 12:58:29 PM 37.8900 -124.9614 110° East 577 664 36,900  Level Oakland Center
Thu 12:59:31 PM 37.8347 -124.7700 110° East 579 666 36,900  Level Oakland Center
Thu 01:00:32 PM 37.7792 -124.5811 110° East 577 664 36,900  Level Oakland Center
Thu 01:01:34 PM 37.7228 -124.3925 111° Southeast 574 661 36,900 49 Level Oakland Center
Thu 01:02:35 PM 37.6678 -124.2036 110° East 576 663 37,000 49 Climbing Oakland Center
Thu 01:03:37 PM 37.6111 -124.0167 111° Southeast 575 662 37,000  Level Oakland Center
Thu 01:04:38 PM 37.5550 -123.8303 111° Southeast 573 659 37,000  Level Oakland Center
Thu 01:05:40 PM 37.4856 -123.6081 111° Southeast 570 656 37,000  Level Oakland Center
Thu 01:11:38 PM 37.0935 -122.5580 111° Southeast 563 648 37,000  Level FlightAware ADS-B
Thu 01:12:08 PM 37.0494 -122.4760 124° Southeast 563 648 37,000  Level FlightAware ADS-B
Thu 01:12:51 PM 36.9869 -122.3610 124° Southeast 565 650 37,000  Level FlightAware ADS-B
Thu 01:13:32 PM 36.9269 -122.2500 124° Southeast 564 649 37,000  Level FlightAware ADS-B
Thu 01:14:08 PM 36.8736 -122.1530 124° Southeast 563 648 37,000  Level FlightAware ADS-B
Thu 01:15:36 PM 36.7456 -121.9190 124° Southeast 563 648 37,000  Level FlightAware ADS-B
Thu 01:16:10 PM 36.6942 -121.8260 125° Southeast 563 648 37,000  Level FlightAware ADS-B
Thu 01:16:55 PM 36.6284 -121.7070 125° Southeast 560 644 37,000  Level FlightAware ADS-B
Thu 01:19:04 PM 36.4381 -121.3650 125° Southeast 561 646 37,000 -112 Level FlightAware ADS-B
Thu 01:19:36 PM 36.3921 -121.2830 125° Southeast 561 646 36,700 -1,151 Descending FlightAware ADS-B
Thu 01:20:17 PM 36.3301 -121.1720 125° Southeast 564 649 35,600 -1,538 Descending FlightAware ADS-B
Thu 01:20:54 PM 36.2889 -121.1028 125° Southeast 558 642 34,700 -1,486 Descending Los Angeles Center
Thu 01:22:02 PM 36.1814 -120.9133 125° Southeast 560 644 33,000 -837 Descending Oakland Center
Thu 01:23:03 PM 36.0922 -120.7561 125° Southeast 558 642 32,900 -49 Descending Oakland Center
Thu 01:24:04 PM 36.0036 -120.5978 125° Southeast 558 642 32,900 49 Level Oakland Center
Thu 01:25:06 PM 35.9136 -120.4408 125° Southeast 559 643 33,000  Climbing Oakland Center
Thu 01:26:07 PM 35.8233 -120.2844 125° Southeast 556 640 32,900 -49 Descending Oakland Center
Thu 01:27:09 PM 35.7339 -120.1286 125° Southeast 552 635 32,900 -48 Level Oakland Center
Thu 01:28:11 PM 35.6378 -119.9775 128° Southeast 553 636 32,800 -634 Descending Oakland Center
Thu 01:29:12 PM 35.5150 -119.8619 143° Southeast 551 634 31,600 -885 Descending Oakland Center
Thu 01:30:13 PM 35.3878 -119.7536 145° Southeast 551 634 31,000 -293 Descending Oakland Center
Thu 01:31:15 PM 35.2619 -119.6453 145° Southeast 551 634 31,000 -683 Level Oakland Center
Thu 01:32:16 PM 35.1372 -119.5406 146° Southeast 545 627 29,600 -2,112 Descending Oakland Center
Thu 01:33:20 PM 34.9931 -119.4175 145° Southeast 529 609 26,600 -2,261 Descending Los Angeles Center
Thu 01:34:34 PM 34.8778 -119.3203 145° Southeast 512 589 24,400 -2,559 Descending Los Angeles Center
Thu 01:35:36 PM 34.7458 -119.2083 145° Southeast 487 560 20,800 -2,855 Descending Los Angeles Center
Thu 01:36:38 PM 34.6283 -119.1086 145° Southeast 472 543 18,500 -2,129 Descending Los Angeles Center
Thu 01:37:40 PM 34.5189 -119.0156 145° Southeast 453 521 16,400 -2,016 Descending Los Angeles Center
Thu 01:38:43 PM 34.4211 -118.9328 145° Southeast 427 491 14,300 -1,728 Descending Los Angeles Center
Thu 01:39:45 PM 34.3208 -118.8686 152° Southeast 411 473 12,800 -968 Descending Los Angeles Center
Thu 01:40:47 PM 34.2236 -118.8317 163° South 368 423 12,300 -532 Descending Los Angeles Center
Thu 01:41:49 PM 34.1372 -118.8006 163° South 326 375 11,700 -774 Descending Los Angeles Center
Thu 01:42:51 PM 34.0528 -118.7606 159° South 285 328 10,700 -1,270 Descending Los Angeles Center
Thu 01:48:26 PM 34.0339 -118.2987 159° South 227 261 3,300 -1,255 Descending FlightAware ADS-B
Thu 01:49:04 PM 34.0400 -118.2603 159° South 236 272 2,900 -180 Descending Los Angeles Center
Thu 01:50:06 PM 34.0053 -118.2111 130° Southeast 222 255 3,000 -242 Climbing Los Angeles Center
Thu 01:51:08 PM 33.9697 -118.2575 227° Southwest 197 227 2,400 -726 Descending Los Angeles Center
Thu 01:52:10 PM 33.9622 -118.3119 261° West 175 201 1,500 -774 Descending Los Angeles Center
Thu 01:53:12 PM 33.9578 -118.3611 264° West 160 184 800 -629 Descending Los Angeles Center
Thu 01:54:14 PM 33.9531 -118.3992 262° West 152 175 200 -581 Descending Los Angeles Center

Login

Don't have an account? Register now (free) for customized features, flight alerts, and more!